createdAt,value
2019-02-27T00:00:09.178Z,7.57
2019-02-27T00:02:40.246Z,7.50
2019-02-27T00:05:09.555Z,7.23
2019-02-27T00:07:38.596Z,7.83
2019-02-27T00:10:09.727Z,7.40
2019-02-27T00:12:38.944Z,7.23
2019-02-27T00:15:08.450Z,7.07
2019-02-27T00:17:37.644Z,8.07
2019-02-27T00:20:07.114Z,8.63
2019-02-27T00:22:36.250Z,8.67
2019-02-27T00:25:06.064Z,7.60
2019-02-27T00:27:35.452Z,8.50
2019-02-27T00:30:05.868Z,7.63
2019-02-27T00:32:35.461Z,7.73
2019-02-27T00:35:07.203Z,8.60
2019-02-27T00:37:36.393Z,7.53
2019-02-27T00:40:06.291Z,8.40
2019-02-27T00:42:35.840Z,7.90
2019-02-27T00:45:07.045Z,7.63
2019-02-27T00:47:36.478Z,7.47
2019-02-27T00:50:06.824Z,7.87
2019-02-27T00:52:36.040Z,8.50
2019-02-27T00:55:05.728Z,8.40
2019-02-27T00:57:34.860Z,7.90
2019-02-27T01:00:06.592Z,8.33
2019-02-27T01:02:35.262Z,7.72
2019-02-27T01:05:06.223Z,7.77
2019-02-27T01:07:36.612Z,9.20
2019-02-27T01:10:06.632Z,8.13
2019-02-27T01:12:36.029Z,8.17
2019-02-27T01:15:07.987Z,8.43
2019-02-27T01:17:36.529Z,8.13
2019-02-27T01:20:06.365Z,9.37
2019-02-27T01:22:35.528Z,9.80
2019-02-27T01:25:05.729Z,12.77
2019-02-27T01:27:37.928Z,10.00
2019-02-27T01:30:07.132Z,10.80
2019-02-27T01:32:36.580Z,11.27
2019-02-27T01:35:06.495Z,11.20
2019-02-27T01:37:35.640Z,10.67
2019-02-27T01:40:05.912Z,11.50
2019-02-27T01:42:35.246Z,11.13
2019-02-27T01:45:05.021Z,11.20
2019-02-27T01:47:36.136Z,10.43
2019-02-27T01:50:27.292Z,12.17
2019-02-27T01:52:57.760Z,11.23
2019-02-27T01:55:27.237Z,11.27
2019-02-27T01:57:57.833Z,11.70
2019-02-27T02:00:27.253Z,12.20
2019-02-27T02:02:56.477Z,11.37
2019-02-27T02:05:28.519Z,11.97
2019-02-27T02:07:57.689Z,11.45
2019-02-27T02:10:28.309Z,11.37
2019-02-27T02:13:14.923Z,10.87
2019-02-27T02:16:18.906Z,10.70
2019-02-27T02:19:22.019Z,10.07
2019-02-27T02:22:16.377Z,10.17
2019-02-27T02:25:04.651Z,10.77
2019-02-27T02:28:14.753Z,11.23
2019-02-27T02:30:58.228Z,10.60
2019-02-27T02:33:37.951Z,11.03
2019-02-27T02:36:52.629Z,11.20
2019-02-27T02:39:59.976Z,12.53
2019-02-27T02:43:29.264Z,9.33
2019-02-27T02:46:08.666Z,10.45
2019-02-27T02:49:08.018Z,10.43
2019-02-27T02:51:50.616Z,10.17
2019-02-27T02:54:37.476Z,8.97
2019-02-27T02:57:35.923Z,8.57
2019-02-27T03:00:34.727Z,9.30
2019-02-27T03:03:23.069Z,9.08
2019-02-27T03:06:17.592Z,8.88
2019-02-27T03:09:21.557Z,8.55
2019-02-27T03:12:29.571Z,7.93
2019-02-27T03:15:17.552Z,9.43
2019-02-27T03:18:40.513Z,9.33
2019-02-27T03:22:03.225Z,8.80
2019-02-27T03:24:42.084Z,8.73
2019-02-27T03:27:29.586Z,11.38
2019-02-27T03:30:37.549Z,10.53
2019-02-27T03:33:46.121Z,10.13
2019-02-27T03:36:39.034Z,9.67
2019-02-27T03:39:35.018Z,10.60
2019-02-27T03:42:34.155Z,8.90
2019-02-27T03:45:38.772Z,9.37
2019-02-27T03:48:27.746Z,8.90
2019-02-27T03:51:36.024Z,9.58
2019-02-27T03:54:44.136Z,8.77
2019-02-27T03:57:29.969Z,8.77
2019-02-27T04:00:34.362Z,8.33
2019-02-27T04:03:22.441Z,8.43
2019-02-27T04:06:46.341Z,8.73
2019-02-27T04:09:18.646Z,8.40
2019-02-27T04:11:47.084Z,8.33
2019-02-27T04:14:29.961Z,7.90
2019-02-27T04:17:05.402Z,7.40
2019-02-27T04:19:30.115Z,8.30
2019-02-27T04:22:01.105Z,8.67
2019-02-27T04:24:30.388Z,8.00
2019-02-27T04:26:59.712Z,8.15
2019-02-27T04:29:28.746Z,8.73
2019-02-27T04:31:57.925Z,8.27
2019-02-27T04:34:27.361Z,7.83
2019-02-27T04:36:56.952Z,7.80
2019-02-27T04:39:26.030Z,8.03
2019-02-27T04:41:55.107Z,8.18
2019-02-27T04:44:24.212Z,7.30
2019-02-27T04:46:55.081Z,7.90
2019-02-27T04:49:25.508Z,8.27
2019-02-27T04:51:54.696Z,7.53
2019-02-27T04:54:23.930Z,7.33
2019-02-27T04:56:55.097Z,8.18
2019-02-27T04:59:23.926Z,7.57
2019-02-27T05:01:53.284Z,7.83
2019-02-27T05:04:22.498Z,8.07
2019-02-27T05:06:51.680Z,8.05
2019-02-27T05:09:25.572Z,7.37
2019-02-27T05:11:54.673Z,7.47
2019-02-27T05:14:24.878Z,7.93
2019-02-27T05:16:55.080Z,7.73
2019-02-27T05:19:27.476Z,7.73
2019-02-27T05:21:56.807Z,7.97
2019-02-27T05:24:25.884Z,7.73
2019-02-27T05:26:55.336Z,7.27
2019-02-27T05:29:24.495Z,7.03
2019-02-27T05:31:53.997Z,7.03
2019-02-27T05:34:23.727Z,7.30
2019-02-27T05:36:53.209Z,7.63
2019-02-27T05:39:22.814Z,6.90
2019-02-27T05:41:51.966Z,7.47
2019-02-27T05:44:22.354Z,7.33
2019-02-27T05:46:51.584Z,7.00
2019-02-27T05:49:20.839Z,6.97
2019-02-27T05:51:50.421Z,7.47
2019-02-27T05:54:19.913Z,7.40
2019-02-27T05:56:49.748Z,7.30
2019-02-27T05:59:19.630Z,7.17
2019-02-27T06:01:49.040Z,7.30
2019-02-27T06:04:18.876Z,8.07
2019-02-27T06:06:48.066Z,7.23
2019-02-27T06:09:17.472Z,6.67
2019-02-27T06:11:47.192Z,7.00
2019-02-27T06:14:16.393Z,7.00
2019-02-27T06:16:48.712Z,6.27
2019-02-27T06:19:17.774Z,7.73
2019-02-27T06:21:47.457Z,7.47
2019-02-27T06:24:18.872Z,6.10
2019-02-27T06:26:48.125Z,7.27
2019-02-27T06:29:17.326Z,6.37
2019-02-27T06:31:47.703Z,7.27
2019-02-27T06:34:17.066Z,6.60
2019-02-27T06:36:46.412Z,6.90
2019-02-27T06:39:15.506Z,7.00
2019-02-27T06:41:47.247Z,7.17
2019-02-27T06:44:32.832Z,6.50
2019-02-27T06:47:07.214Z,6.90
2019-02-27T06:49:36.421Z,7.33
2019-02-27T06:52:08.952Z,7.37
2019-02-27T06:54:37.772Z,6.60
2019-02-27T06:57:07.776Z,7.10
2019-02-27T06:59:37.836Z,6.80
2019-02-27T07:02:06.980Z,6.77
2019-02-27T07:04:39.645Z,6.93
2019-02-27T07:07:07.363Z,7.10
2019-02-27T07:09:36.612Z,7.00
2019-02-27T07:12:07.236Z,8.33
2019-02-27T07:14:39.239Z,7.33
2019-02-27T07:17:07.613Z,8.90
2019-02-27T07:19:36.656Z,11.10
2019-02-27T07:22:12.529Z,11.83
2019-02-27T07:24:40.888Z,11.47
2019-02-27T07:27:14.672Z,12.40
2019-02-27T07:29:44.156Z,14.73
2019-02-27T07:32:13.344Z,13.47
2019-02-27T07:34:42.929Z,12.57
2019-02-27T07:37:12.943Z,13.33
2019-02-27T07:39:43.396Z,12.93
2019-02-27T07:42:12.747Z,11.60
2019-02-27T07:44:42.285Z,13.00
2019-02-27T07:47:11.425Z,11.33
2019-02-27T07:49:41.596Z,10.53
2019-02-27T07:52:10.904Z,10.27
2019-02-27T07:54:40.132Z,9.37
2019-02-27T07:57:11.144Z,8.57
2019-02-27T07:59:40.883Z,7.87
2019-02-27T08:02:10.424Z,8.17
2019-02-27T08:04:39.664Z,6.67
2019-02-27T08:07:10.089Z,7.27
2019-02-27T08:09:40.761Z,7.33
2019-02-27T08:12:09.856Z,7.00
2019-02-27T08:14:39.345Z,7.17
2019-02-27T08:17:17.271Z,7.10
2019-02-27T08:19:39.375Z,7.70
2019-02-27T08:22:08.813Z,8.18
2019-02-27T08:24:39.537Z,8.23
2019-02-27T08:27:09.692Z,8.80
2019-02-27T08:29:40.656Z,7.43
2019-02-27T08:32:09.989Z,7.53
2019-02-27T08:34:39.672Z,8.40
2019-02-27T08:37:12.479Z,8.33
2019-02-27T08:39:43.421Z,8.47
2019-02-27T08:42:12.673Z,7.70
2019-02-27T08:44:46.672Z,8.03
2019-02-27T08:47:16.316Z,8.90
2019-02-27T08:49:45.660Z,8.53
2019-02-27T08:54:50.255Z,9.03
2019-02-27T08:57:19.708Z,8.67
2019-02-27T09:02:24.249Z,8.93
2019-02-27T09:04:53.397Z,8.30
2019-02-27T09:07:22.516Z,8.30
2019-02-27T09:09:52.384Z,8.33
2019-02-27T09:12:21.761Z,8.40
2019-02-27T09:14:51.720Z,9.23
2019-02-27T09:17:20.913Z,10.05
2019-02-27T09:19:51.514Z,9.27
2019-02-27T09:22:20.622Z,8.53
2019-02-27T09:24:49.741Z,8.87
2019-02-27T09:29:54.741Z,8.45
2019-02-27T09:32:24.544Z,8.98
2019-02-27T09:34:53.544Z,8.90
2019-02-27T09:37:23.051Z,8.43
2019-02-27T09:39:52.204Z,8.73
2019-02-27T09:42:21.439Z,8.20
2019-02-27T09:44:50.872Z,8.53
2019-02-27T09:47:23.245Z,8.63
2019-02-27T09:49:51.509Z,8.10
2019-02-27T09:52:20.672Z,7.80
2019-02-27T09:54:49.752Z,7.33
2019-02-27T09:57:21.601Z,7.73
2019-02-27T09:59:51.174Z,7.93
2019-02-27T10:02:21.952Z,7.73
2019-02-27T10:04:51.203Z,8.07
2019-02-27T10:07:39.799Z,8.10
2019-02-27T10:10:10.422Z,7.57
2019-02-27T10:12:40.176Z,7.47
2019-02-27T10:15:09.272Z,7.90
2019-02-27T10:17:41.076Z,7.73
2019-02-27T10:20:09.337Z,7.90
2019-02-27T10:22:39.306Z,7.17
2019-02-27T10:25:08.711Z,7.70
2019-02-27T10:27:38.680Z,7.80
2019-02-27T10:30:11.478Z,7.10
2019-02-27T10:32:39.900Z,8.28
2019-02-27T10:35:09.236Z,7.00
2019-02-27T10:37:42.183Z,7.00
2019-02-27T10:40:13.064Z,7.00
2019-02-27T10:42:42.160Z,7.67
2019-02-27T10:45:11.352Z,7.07
2019-02-27T10:47:41.247Z,7.17
2019-02-27T10:50:12.517Z,7.33
2019-02-27T10:52:41.727Z,7.80
2019-02-27T10:55:14.169Z,7.43
2019-02-27T10:57:44.816Z,8.03
2019-02-27T11:00:25.163Z,7.47
2019-02-27T11:02:54.092Z,7.87
2019-02-27T11:05:23.605Z,8.00
2019-02-27T11:07:53.502Z,7.47
2019-02-27T11:10:23.373Z,7.73
2019-02-27T11:12:52.569Z,7.33
2019-02-27T11:15:21.741Z,7.30
2019-02-27T11:17:51.316Z,7.50
2019-02-27T11:20:21.759Z,6.87
2019-02-27T11:22:51.412Z,7.00
2019-02-27T11:25:22.547Z,7.40
2019-02-27T11:27:52.297Z,7.23
2019-02-27T11:30:23.848Z,6.93
2019-02-27T11:32:57.031Z,6.93
2019-02-27T11:35:25.178Z,6.93
2019-02-27T11:37:55.210Z,7.67
2019-02-27T11:40:26.148Z,7.53
2019-02-27T11:42:55.539Z,7.07
2019-02-27T11:45:25.248Z,6.10
2019-02-27T11:47:54.433Z,6.95
2019-02-27T11:50:24.175Z,7.03
2019-02-27T11:52:53.709Z,6.63
2019-02-27T11:55:42.037Z,6.50
2019-02-27T11:58:11.839Z,7.10
2019-02-27T12:00:41.205Z,6.63
2019-02-27T12:03:11.183Z,6.87
2019-02-27T12:05:41.468Z,6.80
2019-02-27T12:08:11.426Z,6.70
2019-02-27T12:10:40.687Z,7.10
2019-02-27T12:13:09.809Z,6.80
2019-02-27T12:15:43.297Z,7.17
2019-02-27T12:18:10.195Z,6.60
2019-02-27T12:20:40.267Z,7.13
2019-02-27T12:23:10.121Z,6.87
2019-02-27T12:25:40.002Z,6.23
2019-02-27T12:28:10.578Z,5.60
2019-02-27T12:30:39.796Z,6.50
2019-02-27T12:33:09.551Z,6.77
2019-02-27T12:35:38.676Z,6.03
2019-02-27T12:38:08.526Z,5.60
2019-02-27T12:40:38.143Z,7.00
2019-02-27T12:43:07.648Z,6.58
2019-02-27T12:45:36.725Z,6.43
2019-02-27T12:48:05.898Z,5.70
2019-02-27T12:50:35.156Z,5.13
2019-02-27T12:53:04.572Z,5.10
2019-02-27T12:55:36.259Z,6.63
2019-02-27T12:58:04.577Z,5.60
2019-02-27T13:00:34.205Z,4.63
2019-02-27T13:03:08.435Z,4.50
2019-02-27T13:05:34.466Z,4.70
2019-02-27T13:08:07.081Z,5.43
2019-02-27T13:10:36.228Z,6.00
2019-02-27T13:13:07.140Z,5.50
2019-02-27T13:15:38.364Z,5.63
2019-02-27T13:18:07.541Z,5.53
2019-02-27T13:20:37.078Z,5.83
2019-02-27T13:23:07.711Z,6.10
2019-02-27T13:25:37.152Z,5.70
2019-02-27T13:28:06.967Z,6.17
2019-02-27T13:30:36.152Z,5.27
2019-02-27T13:33:06.331Z,4.77
2019-02-27T13:35:35.429Z,4.70
2019-02-27T13:38:08.120Z,4.70
2019-02-27T13:40:37.368Z,4.60
2019-02-27T13:43:06.445Z,4.50
2019-02-27T13:45:35.663Z,4.10
2019-02-27T13:48:06.074Z,4.20
2019-02-27T13:50:35.365Z,5.00
2019-02-27T13:53:04.467Z,4.87
2019-02-27T13:55:33.553Z,5.30
2019-02-27T13:58:03.895Z,5.37
2019-02-27T14:00:33.350Z,5.90
2019-02-27T14:03:02.904Z,6.10
2019-02-27T14:05:36.057Z,6.30
2019-02-27T14:08:23.513Z,6.37
2019-02-27T14:10:54.025Z,6.90
2019-02-27T14:13:23.435Z,6.77
2019-02-27T14:15:52.646Z,6.03
2019-02-27T14:18:22.171Z,6.40
2019-02-27T14:20:51.421Z,6.20
2019-02-27T14:23:21.188Z,5.67
2019-02-27T14:25:50.848Z,6.17
2019-02-27T14:28:21.002Z,5.27
2019-02-27T14:30:51.809Z,6.63
2019-02-27T14:33:21.890Z,5.80
2019-02-27T14:35:51.175Z,6.00
2019-02-27T14:38:21.872Z,5.40
2019-02-27T14:40:52.248Z,5.27
2019-02-27T14:43:21.392Z,5.30
2019-02-27T14:45:51.323Z,5.03
2019-02-27T14:48:21.574Z,5.30
2019-02-27T14:50:51.442Z,5.57
2019-02-27T14:53:20.941Z,5.08
2019-02-27T14:55:50.257Z,5.63
2019-02-27T14:58:24.065Z,5.47
2019-02-27T15:00:50.848Z,5.00
2019-02-27T15:03:20.008Z,4.83
2019-02-27T15:05:49.946Z,5.10
2019-02-27T15:08:19.126Z,4.53
2019-02-27T15:10:48.332Z,5.13
2019-02-27T15:13:17.660Z,4.92
2019-02-27T15:15:46.836Z,4.87
2019-02-27T15:18:17.811Z,4.70
2019-02-27T15:20:46.920Z,4.93
2019-02-27T15:23:17.193Z,4.03
2019-02-27T15:25:46.277Z,3.93
2019-02-27T15:28:17.296Z,3.87
2019-02-27T15:30:47.294Z,3.40
2019-02-27T15:33:17.156Z,3.83
2019-02-27T15:35:46.353Z,3.17
2019-02-27T15:38:15.473Z,3.87
2019-02-27T15:40:44.588Z,3.43
2019-02-27T15:43:16.985Z,3.47
2019-02-27T15:45:47.935Z,3.10
2019-02-27T15:48:16.352Z,3.30
2019-02-27T15:50:45.841Z,2.93
2019-02-27T15:53:16.338Z,3.13
2019-02-27T15:55:45.881Z,3.00
2019-02-27T15:58:16.328Z,2.53
2019-02-27T16:00:45.434Z,2.60
2019-02-27T16:03:14.885Z,2.37
2019-02-27T16:05:44.121Z,2.60
2019-02-27T16:08:15.296Z,3.13
2019-02-27T16:10:54.351Z,2.47
2019-02-27T16:13:15.608Z,2.97
2019-02-27T16:15:45.237Z,2.90
2019-02-27T16:18:15.092Z,3.30
2019-02-27T16:20:47.073Z,3.27
2019-02-27T16:23:16.911Z,3.37
2019-02-27T16:25:46.385Z,3.77
2019-02-27T16:28:16.640Z,3.60
2019-02-27T16:30:45.957Z,3.77
2019-02-27T16:33:15.895Z,3.90
2019-02-27T16:35:46.399Z,3.97
2019-02-27T16:38:15.671Z,4.10
2019-02-27T16:40:45.180Z,4.70
2019-02-27T16:43:14.973Z,4.10
2019-02-27T16:45:44.600Z,4.20
2019-02-27T16:48:13.904Z,3.50
2019-02-27T16:50:45.078Z,3.43
2019-02-27T16:53:18.626Z,3.65
2019-02-27T16:55:45.675Z,3.40
2019-02-27T16:58:14.842Z,3.40
2019-02-27T17:00:45.462Z,3.43
2019-02-27T17:03:14.609Z,3.93
2019-02-27T17:05:43.928Z,3.40
2019-02-27T17:08:13.324Z,3.45
2019-02-27T17:10:42.437Z,3.98
2019-02-27T17:13:14.396Z,4.33
2019-02-27T17:15:42.484Z,3.97
2019-02-27T17:18:12.869Z,4.43
2019-02-27T17:20:46.609Z,4.77
2019-02-27T17:23:16.486Z,4.80
2019-02-27T17:25:45.884Z,5.00
2019-02-27T17:28:15.068Z,4.47
2019-02-27T17:30:44.294Z,4.90
2019-02-27T17:33:15.764Z,5.13
2019-02-27T17:35:45.747Z,5.13
2019-02-27T17:38:15.242Z,5.17
2019-02-27T17:40:44.354Z,5.10
2019-02-27T17:43:13.576Z,5.20
2019-02-27T17:45:44.325Z,5.20
2019-02-27T17:48:13.968Z,4.60
2019-02-27T17:50:43.437Z,5.30
2019-02-27T17:53:12.736Z,4.90
2019-02-27T17:55:42.621Z,4.90
2019-02-27T17:58:11.821Z,4.87
2019-02-27T18:00:59.124Z,5.43
2019-02-27T18:03:28.648Z,4.65
2019-02-27T18:06:00.205Z,4.57
2019-02-27T18:08:29.381Z,3.87
2019-02-27T18:10:58.812Z,4.40
2019-02-27T18:13:28.482Z,4.43
2019-02-27T18:15:57.719Z,7.43
2019-02-27T18:18:27.389Z,6.27
2019-02-27T18:20:59.519Z,26.00
2019-02-27T18:23:28.209Z,20.10
2019-02-27T18:25:57.372Z,8.00
2019-02-27T18:28:26.484Z,8.57
2019-02-27T18:30:55.597Z,7.13
2019-02-27T18:33:24.731Z,8.17
2019-02-27T18:35:54.634Z,8.40
2019-02-27T18:38:27.601Z,7.70
2019-02-27T18:40:54.690Z,7.42
2019-02-27T18:43:23.676Z,7.47
2019-02-27T18:45:53.244Z,6.93
2019-02-27T18:48:22.338Z,6.90
2019-02-27T18:50:51.884Z,7.83
2019-02-27T18:53:21.038Z,5.83
2019-02-27T18:55:50.908Z,6.13
2019-02-27T18:58:20.946Z,5.40
2019-02-27T19:00:50.652Z,4.40
2019-02-27T19:03:19.732Z,4.70
2019-02-27T19:05:48.976Z,4.42
2019-02-27T19:08:18.462Z,4.47
2019-02-27T19:10:47.624Z,4.83
2019-02-27T19:13:16.936Z,5.00
2019-02-27T19:15:46.528Z,4.40
2019-02-27T19:18:15.799Z,4.37
2019-02-27T19:20:45.292Z,4.62
2019-02-27T19:23:17.810Z,4.87
2019-02-27T19:25:48.095Z,4.90
2019-02-27T19:28:17.178Z,4.50
2019-02-27T19:30:46.496Z,4.47
2019-02-27T19:33:15.912Z,4.60
2019-02-27T19:35:45.100Z,3.80
2019-02-27T19:38:14.292Z,4.00
2019-02-27T19:40:43.467Z,4.30
2019-02-27T19:43:13.109Z,4.60
2019-02-27T19:45:43.068Z,4.20
2019-02-27T19:48:14.044Z,4.53
2019-02-27T19:50:46.296Z,4.30
2019-02-27T19:53:14.079Z,4.87
2019-02-27T19:55:43.291Z,4.80
2019-02-27T19:58:17.255Z,4.50
2019-02-27T20:00:48.527Z,5.53
2019-02-27T20:03:15.053Z,5.17
2019-02-27T20:05:45.158Z,4.80
2019-02-27T20:08:14.765Z,4.53
2019-02-27T20:10:44.395Z,4.00
2019-02-27T20:13:15.234Z,3.93
2019-02-27T20:15:45.761Z,3.83
2019-02-27T20:18:16.276Z,3.93
2019-02-27T20:20:45.788Z,3.40
2019-02-27T20:23:15.700Z,3.20
2019-02-27T20:25:45.705Z,3.60
2019-02-27T20:28:15.112Z,3.43
2019-02-27T20:30:44.741Z,4.00
2019-02-27T20:33:14.381Z,3.40
2019-02-27T20:35:43.452Z,3.10
2019-02-27T20:38:15.964Z,3.00
2019-02-27T20:40:46.441Z,3.40
2019-02-27T20:43:16.897Z,3.30
2019-02-27T20:45:46.937Z,3.70
2019-02-27T20:48:17.401Z,3.13
2019-02-27T20:50:46.820Z,3.33
2019-02-27T20:53:15.929Z,3.83
2019-02-27T20:55:45.031Z,3.33
2019-02-27T20:58:17.411Z,3.57
2019-02-27T21:00:46.845Z,3.20
2019-02-27T21:03:17.645Z,4.53
2019-02-27T21:05:48.626Z,3.83
2019-02-27T21:08:18.160Z,4.13
2019-02-27T21:10:47.868Z,3.60
2019-02-27T21:13:17.388Z,3.23
2019-02-27T21:15:46.568Z,4.00
2019-02-27T21:18:16.410Z,4.63
2019-02-27T21:20:46.227Z,3.85
2019-02-27T21:23:17.328Z,3.60
2019-02-27T21:25:49.190Z,3.93
2019-02-27T21:28:32.453Z,4.23
2019-02-27T21:31:02.437Z,3.85
2019-02-27T21:33:31.677Z,4.33
2019-02-27T21:36:03.348Z,4.10
2019-02-27T21:38:31.640Z,4.30
2019-02-27T21:41:04.528Z,5.30
2019-02-27T21:43:34.067Z,4.37
2019-02-27T21:46:03.400Z,5.73
2019-02-27T21:48:32.560Z,4.93
2019-02-27T21:51:01.740Z,6.23
2019-02-27T21:53:30.851Z,6.57
2019-02-27T21:56:00.200Z,7.00
2019-02-27T21:58:32.824Z,5.97
2019-02-27T22:01:02.550Z,5.33
2019-02-27T22:03:32.077Z,5.57
2019-02-27T22:06:01.370Z,6.40
2019-02-27T22:08:30.811Z,7.77
2019-02-27T22:10:59.970Z,8.40
2019-02-27T22:13:32.198Z,7.40
2019-02-27T22:16:00.136Z,6.47
2019-02-27T22:18:29.514Z,6.87
2019-02-27T22:20:59.696Z,7.77
2019-02-27T22:23:29.412Z,6.87
2019-02-27T22:26:03.064Z,7.58
2019-02-27T22:28:31.001Z,9.00
2019-02-27T22:31:03.331Z,9.33
2019-02-27T22:33:32.376Z,10.17
2019-02-27T22:36:02.021Z,9.97
2019-02-27T22:38:31.037Z,10.57
2019-02-27T22:41:00.577Z,11.93
2019-02-27T22:43:30.143Z,11.80
2019-02-27T22:45:59.492Z,11.73
2019-02-27T22:48:28.827Z,11.57
2019-02-27T22:50:58.300Z,10.80
2019-02-27T22:53:29.348Z,11.70
2019-02-27T22:55:59.253Z,10.13
2019-02-27T22:58:28.365Z,10.60
2019-02-27T23:01:10.622Z,9.30
2019-02-27T23:03:42.904Z,9.63
2019-02-27T23:06:13.904Z,10.33
2019-02-27T23:08:43.828Z,10.47
2019-02-27T23:11:13.373Z,9.13
2019-02-27T23:13:47.542Z,9.07
2019-02-27T23:16:17.140Z,9.50
2019-02-27T23:18:46.416Z,9.57
2019-02-27T23:21:16.748Z,10.93
2019-02-27T23:23:45.841Z,11.07
2019-02-27T23:26:20.196Z,11.43
2019-02-27T23:28:50.720Z,10.47
2019-02-27T23:31:23.390Z,9.97
2019-02-27T23:33:50.771Z,10.15
2019-02-27T23:36:22.103Z,10.73
2019-02-27T23:38:51.172Z,11.83
2019-02-27T23:41:23.319Z,12.53
2019-02-27T23:43:51.580Z,13.20
2019-02-27T23:46:21.013Z,10.77
2019-02-27T23:48:50.174Z,14.13
2019-02-27T23:51:19.296Z,14.10
2019-02-27T23:53:48.324Z,12.03
2019-02-27T23:56:20.664Z,15.10
2019-02-27T23:58:49.812Z,14.00
